sensor_id;sensor_type;location;lat;lon;timestamp;pressure;altitude;pressure_sealevel;temperature;humidity
4012;BME280;2020;48.682;9.024;2023-04-27T00:00:03;96495.22;;;7.16;72.13
4012;BME280;2020;48.682;9.024;2023-04-27T00:02:32;96494.53;;;7.14;72.49
4012;BME280;2020;48.682;9.024;2023-04-27T00:04:57;96488.94;;;7.09;72.97
4012;BME280;2020;48.682;9.024;2023-04-27T00:07:22;96488.94;;;7.09;72.48
4012;BME280;2020;48.682;9.024;2023-04-27T00:09:47;96482.38;;;7.05;73.19
4012;BME280;2020;48.682;9.024;2023-04-27T00:12:13;96490.16;;;7.05;72.77
4012;BME280;2020;48.682;9.024;2023-04-27T00:14:38;96489.63;;;7.01;73.17
4012;BME280;2020;48.682;9.024;2023-04-27T00:17:03;96488.94;;;6.99;74.32
4012;BME280;2020;48.682;9.024;2023-04-27T00:19:28;96483.44;;;6.92;73.84
4012;BME280;2020;48.682;9.024;2023-04-27T00:21:54;96490.25;;;6.93;73.55
4012;BME280;2020;48.682;9.024;2023-04-27T00:24:21;96486.97;;;6.91;74.53
4012;BME280;2020;48.682;9.024;2023-04-27T00:26:47;96490.53;;;6.90;74.61
4012;BME280;2020;48.682;9.024;2023-04-27T00:29:12;96486.44;;;6.87;74.93
4012;BME280;2020;48.682;9.024;2023-04-27T00:31:37;96483.97;;;6.86;75.30
4012;BME280;2020;48.682;9.024;2023-04-27T00:34:02;96480.69;;;6.84;75.75
4012;BME280;2020;48.682;9.024;2023-04-27T00:36:28;96481.50;;;6.75;73.94
4012;BME280;2020;48.682;9.024;2023-04-27T00:38:53;96469.50;;;6.73;74.71
4012;BME280;2020;48.682;9.024;2023-04-27T00:41:18;96476.56;;;6.71;74.49
4012;BME280;2020;48.682;9.024;2023-04-27T00:43:45;96470.88;;;6.68;75.00
4012;BME280;2020;48.682;9.024;2023-04-27T00:46:13;96463.53;;;6.73;75.32
4012;BME280;2020;48.682;9.024;2023-04-27T00:48:39;96469.25;;;6.77;75.88
4012;BME280;2020;48.682;9.024;2023-04-27T00:51:05;96457.94;;;6.78;75.90
4012;BME280;2020;48.682;9.024;2023-04-27T00:53:30;96454.78;;;6.64;74.67
4012;BME280;2020;48.682;9.024;2023-04-27T00:55:56;96451.50;;;6.62;75.03
4012;BME280;2020;48.682;9.024;2023-04-27T00:58:22;96458.31;;;6.63;75.45
4012;BME280;2020;48.682;9.024;2023-04-27T01:00:48;96458.84;;;6.57;74.00
4012;BME280;2020;48.682;9.024;2023-04-27T01:03:13;96456.94;;;6.59;74.61
4012;BME280;2020;48.682;9.024;2023-04-27T01:05:38;96450.38;;;6.55;73.73
4012;BME280;2020;48.682;9.024;2023-04-27T01:08:04;96453.91;;;6.54;75.32
4012;BME280;2020;48.682;9.024;2023-04-27T01:10:30;96467.28;;;6.59;76.12
4012;BME280;2020;48.682;9.024;2023-04-27T01:12:55;96461.84;;;6.62;76.55
4012;BME280;2020;48.682;9.024;2023-04-27T01:15:21;96469.34;;;6.65;76.83
4012;BME280;2020;48.682;9.024;2023-04-27T01:17:46;96466.50;;;6.68;76.55
4012;BME280;2020;48.682;9.024;2023-04-27T01:20:12;96470.03;;;6.67;77.23
4012;BME280;2020;48.682;9.024;2023-04-27T01:22:38;96475.47;;;6.64;77.78
4012;BME280;2020;48.682;9.024;2023-04-27T01:25:04;96475.72;;;6.61;77.50
4012;BME280;2020;48.682;9.024;2023-04-27T01:27:30;96472.72;;;6.56;76.79
4012;BME280;2020;48.682;9.024;2023-04-27T01:29:55;96470.81;;;6.58;78.57
4012;BME280;2020;48.682;9.024;2023-04-27T01:32:21;96470.81;;;6.58;77.39
4012;BME280;2020;48.682;9.024;2023-04-27T01:34:46;96469.94;;;6.48;77.63
4012;BME280;2020;48.682;9.024;2023-04-27T01:37:11;96474.00;;;6.40;77.24
4012;BME280;2020;48.682;9.024;2023-04-27T01:39:37;96471.97;;;6.44;77.02
4012;BME280;2020;48.682;9.024;2023-04-27T01:42:02;96470.47;;;6.41;76.61
4012;BME280;2020;48.682;9.024;2023-04-27T01:44:28;96459.03;;;6.44;76.40
4012;BME280;2020;48.682;9.024;2023-04-27T01:46:53;96458.22;;;6.43;76.41
4012;BME280;2020;48.682;9.024;2023-04-27T01:49:18;96458.34;;;6.42;76.17
4012;BME280;2020;48.682;9.024;2023-04-27T01:51:44;96468.00;;;6.40;76.24
4012;BME280;2020;48.682;9.024;2023-04-27T01:54:09;96466.38;;;6.39;76.62
4012;BME280;2020;48.682;9.024;2023-04-27T01:56:34;96471.00;;;6.35;76.89
4012;BME280;2020;48.682;9.024;2023-04-27T01:58:59;96474.00;;;6.40;78.49
4012;BME280;2020;48.682;9.024;2023-04-27T02:01:25;96480.38;;;6.36;78.09
4012;BME280;2020;48.682;9.024;2023-04-27T02:03:50;96481.31;;;6.35;77.41
4012;BME280;2020;48.682;9.024;2023-04-27T02:06:15;96480.63;;;6.33;77.75
4012;BME280;2020;48.682;9.024;2023-04-27T02:08:41;96478.56;;;6.27;77.26
4012;BME280;2020;48.682;9.024;2023-04-27T02:11:06;96480.47;;;6.25;77.03
4012;BME280;2020;48.682;9.024;2023-04-27T02:13:31;96478.38;;;6.19;76.64
4012;BME280;2020;48.682;9.024;2023-04-27T02:15:57;96483.31;;;6.22;77.74
4012;BME280;2020;48.682;9.024;2023-04-27T02:18:22;96478.66;;;6.16;76.70
4012;BME280;2020;48.682;9.024;2023-04-27T02:20:48;96489.94;;;6.14;77.01
4012;BME280;2020;48.682;9.024;2023-04-27T02:23:13;96482.88;;;6.17;76.88
4012;BME280;2020;48.682;9.024;2023-04-27T02:25:39;96489.41;;;6.21;77.81
4012;BME280;2020;48.682;9.024;2023-04-27T02:28:07;96494.59;;;6.21;78.10
4012;BME280;2020;48.682;9.024;2023-04-27T02:30:32;96489.53;;;6.19;77.17
4012;BME280;2020;48.682;9.024;2023-04-27T02:32:58;96484.34;;;6.19;76.79
4012;BME280;2020;48.682;9.024;2023-04-27T02:35:24;96488.84;;;6.17;76.18
4012;BME280;2020;48.682;9.024;2023-04-27T02:37:49;96486.94;;;6.19;79.24
4012;BME280;2020;48.682;9.024;2023-04-27T02:40:15;96489.66;;;6.18;77.79
4012;BME280;2020;48.682;9.024;2023-04-27T02:42:40;96494.25;;;6.14;78.13
4012;BME280;2020;48.682;9.024;2023-04-27T02:45:06;96488.97;;;6.16;78.39
4012;BME280;2020;48.682;9.024;2023-04-27T02:47:32;96491.56;;;6.16;78.92
4012;BME280;2020;48.682;9.024;2023-04-27T02:49:57;96496.47;;;6.19;79.62
4012;BME280;2020;48.682;9.024;2023-04-27T02:52:22;96498.38;;;6.17;80.00
4012;BME280;2020;48.682;9.024;2023-04-27T02:54:47;96493.22;;;6.17;80.48
4012;BME280;2020;48.682;9.024;2023-04-27T02:57:13;96491.31;;;6.19;79.95
4012;BME280;2020;48.682;9.024;2023-04-27T02:59:38;96497.44;;;6.18;80.64
4012;BME280;2020;48.682;9.024;2023-04-27T03:02:03;96495.78;;;6.17;81.18
4012;BME280;2020;48.682;9.024;2023-04-27T03:04:28;96488.03;;;6.17;80.65
4012;BME280;2020;48.682;9.024;2023-04-27T03:06:54;96495.09;;;6.14;80.49
4012;BME280;2020;48.682;9.024;2023-04-27T03:09:19;96492.06;;;6.09;80.64
4012;BME280;2020;48.682;9.024;2023-04-27T03:11:44;96497.97;;;6.00;80.63
4012;BME280;2020;48.682;9.024;2023-04-27T03:14:09;96490.69;;;6.05;81.03
4012;BME280;2020;48.682;9.024;2023-04-27T03:16:36;96491.63;;;6.04;81.22
4012;BME280;2020;48.682;9.024;2023-04-27T03:19:01;96487.41;;;6.03;80.53
4012;BME280;2020;48.682;9.024;2023-04-27T03:21:27;96486.56;;;6.03;80.07
4012;BME280;2020;48.682;9.024;2023-04-27T03:23:53;96498.56;;;6.04;80.71
4012;BME280;2020;48.682;9.024;2023-04-27T03:26:18;96504.56;;;6.04;80.28
4012;BME280;2020;48.682;9.024;2023-04-27T03:28:44;96498.56;;;6.04;80.62
4012;BME280;2020;48.682;9.024;2023-04-27T03:31:11;96502.66;;;6.06;80.83
4012;BME280;2020;48.682;9.024;2023-04-27T03:33:37;96492.81;;;6.00;80.59
4012;BME280;2020;48.682;9.024;2023-04-27T03:36:04;96492.81;;;6.00;80.26
4012;BME280;2020;48.682;9.024;2023-04-27T03:38:31;96495.84;;;6.05;80.35
4012;BME280;2020;48.682;9.024;2023-04-27T03:40:56;96498.28;;;6.07;79.70
4012;BME280;2020;48.682;9.024;2023-04-27T03:43:22;96493.97;;;6.07;81.31
4012;BME280;2020;48.682;9.024;2023-04-27T03:45:47;96497.94;;;6.11;81.49
4012;BME280;2020;48.682;9.024;2023-04-27T03:48:14;96495.34;;;6.11;81.56
4012;BME280;2020;48.682;9.024;2023-04-27T03:50:40;96501.56;;;6.09;82.54
4012;BME280;2020;48.682;9.024;2023-04-27T03:53:05;96504.56;;;6.04;81.52
4012;BME280;2020;48.682;9.024;2023-04-27T03:55:31;96500.44;;;6.02;81.39
4012;BME280;2020;48.682;9.024;2023-04-27T03:57:56;96496.31;;;5.99;81.60
4012;BME280;2020;48.682;9.024;2023-04-27T04:00:21;96500.56;;;6.00;81.47
4012;BME280;2020;48.682;9.024;2023-04-27T04:02:47;96497.13;;;5.99;80.68
4012;BME280;2020;48.682;9.024;2023-04-27T04:05:12;96495.50;;;5.98;80.61
4012;BME280;2020;48.682;9.024;2023-04-27T04:07:39;96492.34;;;5.95;80.17
4012;BME280;2020;48.682;9.024;2023-04-27T04:10:06;96502.66;;;5.95;82.09
4012;BME280;2020;48.682;9.024;2023-04-27T04:12:31;96503.38;;;5.97;82.50
4012;BME280;2020;48.682;9.024;2023-04-27T04:14:57;96498.91;;;5.99;82.02
4012;BME280;2020;48.682;9.024;2023-04-27T04:17:22;96505.50;;;5.92;81.43
4012;BME280;2020;48.682;9.024;2023-04-27T04:19:48;96503.84;;;5.91;80.60
4012;BME280;2020;48.682;9.024;2023-04-27T04:22:13;96504.00;;;5.89;81.19
4012;BME280;2020;48.682;9.024;2023-04-27T04:24:38;96497.06;;;5.90;81.02
4012;BME280;2020;48.682;9.024;2023-04-27T04:27:04;96509.28;;;5.88;81.49
4012;BME280;2020;48.682;9.024;2023-04-27T04:29:29;96515.84;;;5.92;81.95
4012;BME280;2020;48.682;9.024;2023-04-27T04:31:55;96514.19;;;5.91;81.81
4012;BME280;2020;48.682;9.024;2023-04-27T04:34:20;96515.59;;;5.95;80.44
4012;BME280;2020;48.682;9.024;2023-04-27T04:36:46;96516.16;;;5.98;79.29
4012;BME280;2020;48.682;9.024;2023-04-27T04:39:11;96513.47;;;6.00;80.88
4012;BME280;2020;48.682;9.024;2023-04-27T04:41:37;96511.84;;;5.99;78.95
4012;BME280;2020;48.682;9.024;2023-04-27T04:44:02;96521.84;;;5.92;79.87
4012;BME280;2020;48.682;9.024;2023-04-27T04:46:28;96512.78;;;5.98;80.32
4012;BME280;2020;48.682;9.024;2023-04-27T04:48:54;96518.63;;;6.00;80.74
4012;BME280;2020;48.682;9.024;2023-04-27T04:51:20;96518.16;;;6.06;81.44
4012;BME280;2020;48.682;9.024;2023-04-27T04:53:45;96518.97;;;6.07;80.95
4012;BME280;2020;48.682;9.024;2023-04-27T04:56:12;96521.44;;;6.08;81.12
4012;BME280;2020;48.682;9.024;2023-04-27T04:58:38;96521.44;;;6.08;80.92
4012;BME280;2020;48.682;9.024;2023-04-27T05:01:04;96520.59;;;6.08;81.38
4012;BME280;2020;48.682;9.024;2023-04-27T05:03:30;96519.81;;;6.07;82.45
4012;BME280;2020;48.682;9.024;2023-04-27T05:05:55;96520.25;;;6.12;82.33
4012;BME280;2020;48.682;9.024;2023-04-27T05:08:20;96517.66;;;6.12;83.34
4012;BME280;2020;48.682;9.024;2023-04-27T05:10:52;96514.13;;;6.13;83.14
4012;BME280;2020;48.682;9.024;2023-04-27T05:13:18;96519.75;;;6.19;82.56
4012;BME280;2020;48.682;9.024;2023-04-27T05:15:43;96520.44;;;6.21;81.08
4012;BME280;2020;48.682;9.024;2023-04-27T05:18:08;96528.38;;;6.29;81.39
4012;BME280;2020;48.682;9.024;2023-04-27T05:20:34;96525.53;;;6.32;82.56
4012;BME280;2020;48.682;9.024;2023-04-27T05:23:00;96524.34;;;6.36;81.00
4012;BME280;2020;48.682;9.024;2023-04-27T05:25:29;96524.63;;;6.43;81.72
4012;BME280;2020;48.682;9.024;2023-04-27T05:27:54;96530.38;;;6.47;82.34
4012;BME280;2020;48.682;9.024;2023-04-27T05:30:20;96529.03;;;6.52;80.80
4012;BME280;2020;48.682;9.024;2023-04-27T05:32:45;96529.34;;;6.59;79.26
4012;BME280;2020;48.682;9.024;2023-04-27T05:35:11;96533.19;;;6.65;79.72
4012;BME280;2020;48.682;9.024;2023-04-27T05:37:36;96538.91;;;6.68;78.88
4012;BME280;2020;48.682;9.024;2023-04-27T05:40:01;96533.22;;;6.75;77.47
4012;BME280;2020;48.682;9.024;2023-04-27T05:42:28;96531.31;;;6.77;77.84
4012;BME280;2020;48.682;9.024;2023-04-27T05:44:53;96533.81;;;6.88;76.86
4012;BME280;2020;48.682;9.024;2023-04-27T05:47:18;96533.28;;;6.94;75.98
4012;BME280;2020;48.682;9.024;2023-04-27T05:49:43;96534.69;;;6.98;74.49
4012;BME280;2020;48.682;9.024;2023-04-27T05:52:13;96536.06;;;7.02;75.12
4012;BME280;2020;48.682;9.024;2023-04-27T05:54:38;96540.69;;;7.09;73.45
4012;BME280;2020;48.682;9.024;2023-04-27T05:57:04;96546.47;;;7.22;72.92
4012;BME280;2020;48.682;9.024;2023-04-27T05:59:30;96540.75;;;7.28;73.18
4012;BME280;2020;48.682;9.024;2023-04-27T06:01:55;96549.09;;;7.32;71.72
4012;BME280;2020;48.682;9.024;2023-04-27T06:04:21;96552.25;;;7.36;70.93
4012;BME280;2020;48.682;9.024;2023-04-27T06:06:46;96552.50;;;7.42;70.01
4012;BME280;2020;48.682;9.024;2023-04-27T06:09:11;96553.88;;;7.37;68.52
4012;BME280;2020;48.682;9.024;2023-04-27T06:11:36;96556.06;;;7.41;69.71
4012;BME280;2020;48.682;9.024;2023-04-27T06:14:01;96558.53;;;7.43;68.93
4012;BME280;2020;48.682;9.024;2023-04-27T06:16:27;96558.78;;;7.50;70.11
4012;BME280;2020;48.682;9.024;2023-04-27T06:18:52;96562.91;;;7.52;67.97
4012;BME280;2020;48.682;9.024;2023-04-27T06:21:17;96559.34;;;7.63;69.57
4012;BME280;2020;48.682;9.024;2023-04-27T06:23:43;96566.47;;;7.71;68.18
4012;BME280;2020;48.682;9.024;2023-04-27T06:26:08;96560.47;;;7.80;69.46
4012;BME280;2020;48.682;9.024;2023-04-27T06:28:33;96562.94;;;7.92;70.75
4012;BME280;2020;48.682;9.024;2023-04-27T06:30:59;96562.13;;;8.01;70.53
4012;BME280;2020;48.682;9.024;2023-04-27T06:33:24;96573.28;;;8.11;70.63
4012;BME280;2020;48.682;9.024;2023-04-27T06:35:49;96577.38;;;8.24;69.15
4012;BME280;2020;48.682;9.024;2023-04-27T06:38:15;96573.84;;;8.25;65.57
4012;BME280;2020;48.682;9.024;2023-04-27T06:40:40;96579.69;;;8.27;66.63
4012;BME280;2020;48.682;9.024;2023-04-27T06:43:06;96576.69;;;8.31;62.80
4012;BME280;2020;48.682;9.024;2023-04-27T06:45:31;96579.25;;;8.41;63.76
4012;BME280;2020;48.682;9.024;2023-04-27T06:47:56;96576.53;;;8.33;62.11
4012;BME280;2020;48.682;9.024;2023-04-27T06:50:21;96574.63;;;8.35;61.64
4012;BME280;2020;48.682;9.024;2023-04-27T06:52:47;96579.81;;;8.55;63.49
4012;BME280;2020;48.682;9.024;2023-04-27T06:55:12;96581.03;;;8.70;62.49
4012;BME280;2020;48.682;9.024;2023-04-27T06:57:37;96579.78;;;8.74;61.79
4012;BME280;2020;48.682;9.024;2023-04-27T07:00:03;96577.03;;;8.86;62.75
4012;BME280;2020;48.682;9.024;2023-04-27T07:02:29;96583.22;;;9.03;62.65
4012;BME280;2020;48.682;9.024;2023-04-27T07:04:54;96578.53;;;9.16;61.23
4012;BME280;2020;48.682;9.024;2023-04-27T07:07:19;96575.31;;;9.32;61.17
4012;BME280;2020;48.682;9.024;2023-04-27T07:09:45;96576.47;;;9.48;61.37
4012;BME280;2020;48.682;9.024;2023-04-27T07:12:10;96575.97;;;9.62;62.04
4012;BME280;2020;48.682;9.024;2023-04-27T07:14:36;96578.88;;;9.59;61.99
4012;BME280;2020;48.682;9.024;2023-04-27T07:17:01;96574.97;;;9.73;63.87
4012;BME280;2020;48.682;9.024;2023-04-27T07:19:26;96576.81;;;9.81;60.73
4012;BME280;2020;48.682;9.024;2023-04-27T07:21:51;96580.38;;;10.16;63.49
4012;BME280;2020;48.682;9.024;2023-04-27T07:24:17;96573.53;;;10.51;67.71
4012;BME280;2020;48.682;9.024;2023-04-27T07:26:42;96573.72;;;10.85;64.87
4012;BME280;2020;48.682;9.024;2023-04-27T07:29:07;96568.34;;;10.78;61.87
4012;BME280;2020;48.682;9.024;2023-04-27T07:31:34;96573.63;;;10.94;64.72
4012;BME280;2020;48.682;9.024;2023-04-27T07:33:59;96574.94;;;10.99;60.26
4012;BME280;2020;48.682;9.024;2023-04-27T07:36:25;96565.53;;;11.06;57.72
4012;BME280;2020;48.682;9.024;2023-04-27T07:38:51;96575.28;;;11.38;65.71
4012;BME280;2020;48.682;9.024;2023-04-27T07:41:17;96574.97;;;11.41;61.67
4012;BME280;2020;48.682;9.024;2023-04-27T07:43:42;96570.47;;;11.60;64.94
4012;BME280;2020;48.682;9.024;2023-04-27T07:46:07;96570.13;;;11.63;57.09
4012;BME280;2020;48.682;9.024;2023-04-27T07:48:33;96563.94;;;11.64;57.88
4012;BME280;2020;48.682;9.024;2023-04-27T07:50:58;96576.03;;;11.82;62.85
4012;BME280;2020;48.682;9.024;2023-04-27T07:53:24;96563.16;;;11.80;58.70
4012;BME280;2020;48.682;9.024;2023-04-27T07:55:49;96562.03;;;11.99;62.29
4012;BME280;2020;48.682;9.024;2023-04-27T07:58:14;96563.72;;;12.09;54.93
4012;BME280;2020;48.682;9.024;2023-04-27T08:00:40;96562.25;;;12.06;60.01
4012;BME280;2020;48.682;9.024;2023-04-27T08:03:05;96564.00;;;11.97;57.71
4012;BME280;2020;48.682;9.024;2023-04-27T08:05:31;96561.44;;;12.22;57.89
4012;BME280;2020;48.682;9.024;2023-04-27T08:07:56;96563.69;;;12.34;56.10
4012;BME280;2020;48.682;9.024;2023-04-27T08:10:22;96559.13;;;12.52;54.95
4012;BME280;2020;48.682;9.024;2023-04-27T08:12:47;96564.59;;;12.91;59.03
4012;BME280;2020;48.682;9.024;2023-04-27T08:15:13;96559.06;;;12.94;57.74
4012;BME280;2020;48.682;9.024;2023-04-27T08:17:38;96562.16;;;12.89;52.15
4012;BME280;2020;48.682;9.024;2023-04-27T08:20:08;96554.47;;;12.96;59.10
4012;BME280;2020;48.682;9.024;2023-04-27T08:22:36;96552.47;;;13.06;54.85
4012;BME280;2020;48.682;9.024;2023-04-27T08:25:01;96547.72;;;13.10;56.64
4012;BME280;2020;48.682;9.024;2023-04-27T08:27:28;96542.00;;;13.14;51.07
4012;BME280;2020;48.682;9.024;2023-04-27T08:29:53;96542.28;;;13.20;54.10
4012;BME280;2020;48.682;9.024;2023-04-27T08:32:18;96541.69;;;13.09;53.82
4012;BME280;2020;48.682;9.024;2023-04-27T08:34:44;96539.72;;;13.11;51.69
4012;BME280;2020;48.682;9.024;2023-04-27T08:37:10;96535.47;;;13.10;49.87
4012;BME280;2020;48.682;9.024;2023-04-27T08:39:35;96536.59;;;13.16;56.55
4012;BME280;2020;48.682;9.024;2023-04-27T08:42:09;96528.84;;;13.31;58.27
4012;BME280;2020;48.682;9.024;2023-04-27T08:44:37;96532.00;;;13.58;52.77
4012;BME280;2020;48.682;9.024;2023-04-27T08:47:04;96535.78;;;13.79;53.18
4012;BME280;2020;48.682;9.024;2023-04-27T08:49:29;96533.53;;;13.99;49.64
4012;BME280;2020;48.682;9.024;2023-04-27T08:51:54;96534.66;;;14.04;52.51
4012;BME280;2020;48.682;9.024;2023-04-27T08:54:20;96525.25;;;13.95;48.23
4012;BME280;2020;48.682;9.024;2023-04-27T08:56:45;96532.31;;;13.86;48.76
4012;BME280;2020;48.682;9.024;2023-04-27T08:59:14;96529.03;;;13.61;45.22
4012;BME280;2020;48.682;9.024;2023-04-27T09:01:48;96528.00;;;13.70;49.26
4012;BME280;2020;48.682;9.024;2023-04-27T09:04:14;96535.03;;;13.70;47.84
4012;BME280;2020;48.682;9.024;2023-04-27T09:06:39;96528.34;;;13.67;47.76
4012;BME280;2020;48.682;9.024;2023-04-27T09:09:05;96528.28;;;13.75;50.37
4012;BME280;2020;48.682;9.024;2023-04-27T09:11:33;96530.44;;;13.72;50.27
4012;BME280;2020;48.682;9.024;2023-04-27T09:14:01;96529.53;;;13.65;49.79
4012;BME280;2020;48.682;9.024;2023-04-27T09:16:28;96527.31;;;13.53;47.26
4012;BME280;2020;48.682;9.024;2023-04-27T09:18:54;96535.34;;;13.43;44.78
4012;BME280;2020;48.682;9.024;2023-04-27T09:21:28;96539.16;;;13.64;50.28
4012;BME280;2020;48.682;9.024;2023-04-27T09:23:55;96536.50;;;13.96;50.71
4012;BME280;2020;48.682;9.024;2023-04-27T09:26:22;96541.59;;;13.89;46.36
4012;BME280;2020;48.682;9.024;2023-04-27T09:28:50;96538.69;;;14.07;50.46
4012;BME280;2020;48.682;9.024;2023-04-27T09:31:15;96542.16;;;14.08;45.36
4012;BME280;2020;48.682;9.024;2023-04-27T09:33:42;96535.94;;;14.09;46.14
4012;BME280;2020;48.682;9.024;2023-04-27T09:36:08;96531.97;;;14.13;45.71
4012;BME280;2020;48.682;9.024;2023-04-27T09:38:34;96532.44;;;13.93;49.96
4012;BME280;2020;48.682;9.024;2023-04-27T09:40:59;96532.09;;;13.96;46.99
4012;BME280;2020;48.682;9.024;2023-04-27T09:43:25;96527.88;;;13.87;49.62
4012;BME280;2020;48.682;9.024;2023-04-27T09:45:53;96535.56;;;14.12;46.97
4012;BME280;2020;48.682;9.024;2023-04-27T09:48:20;96538.13;;;14.20;52.39
4012;BME280;2020;48.682;9.024;2023-04-27T09:50:47;96530.66;;;14.70;53.45
4012;BME280;2020;48.682;9.024;2023-04-27T09:53:15;96525.75;;;14.82;49.29
4012;BME280;2020;48.682;9.024;2023-04-27T09:58:57;96539.72;;;14.59;49.26
4012;BME280;2020;48.682;9.024;2023-04-27T10:07:00;96527.09;;;14.25;45.84
4012;BME280;2020;48.682;9.024;2023-04-27T10:09:27;96529.47;;;14.35;46.14
4012;BME280;2020;48.682;9.024;2023-04-27T10:11:55;96533.78;;;14.66;51.92
4012;BME280;2020;48.682;9.024;2023-04-27T10:14:22;96526.50;;;14.76;44.75
4012;BME280;2020;48.682;9.024;2023-04-27T10:16:55;96531.63;;;14.84;46.15
4012;BME280;2020;48.682;9.024;2023-04-27T10:19:22;96533.00;;;14.80;49.06
4012;BME280;2020;48.682;9.024;2023-04-27T10:21:56;96526.31;;;14.93;45.85
4012;BME280;2020;48.682;9.024;2023-04-27T10:24:32;96529.19;;;15.28;45.30
4012;BME280;2020;48.682;9.024;2023-04-27T10:27:18;96527.53;;;15.63;44.72
4012;BME280;2020;48.682;9.024;2023-04-27T10:29:45;96523.50;;;15.61;45.71
4012;BME280;2020;48.682;9.024;2023-04-27T10:32:21;96516.16;;;15.93;44.20
4012;BME280;2020;48.682;9.024;2023-04-27T10:34:49;96520.13;;;16.32;46.53
4012;BME280;2020;48.682;9.024;2023-04-27T10:37:15;96519.72;;;16.57;42.96
4012;BME280;2020;48.682;9.024;2023-04-27T10:39:43;96509.50;;;16.76;46.95
4012;BME280;2020;48.682;9.024;2023-04-27T10:42:09;96501.69;;;16.89;42.62
4012;BME280;2020;48.682;9.024;2023-04-27T10:44:35;96499.91;;;16.96;43.56
4012;BME280;2020;48.682;9.024;2023-04-27T10:47:11;96502.94;;;16.93;42.22
4012;BME280;2020;48.682;9.024;2023-04-27T10:49:37;96503.19;;;17.05;42.81
4012;BME280;2020;48.682;9.024;2023-04-27T10:52:03;96496.16;;;16.77;45.97
4012;BME280;2020;48.682;9.024;2023-04-27T10:54:30;96504.97;;;16.63;42.60
4012;BME280;2020;48.682;9.024;2023-04-27T10:57:21;96502.19;;;17.00;44.14
4012;BME280;2020;48.682;9.024;2023-04-27T10:59:49;96513.44;;;16.93;41.63
4012;BME280;2020;48.682;9.024;2023-04-27T11:02:15;96502.19;;;17.00;40.16
4012;BME280;2020;48.682;9.024;2023-04-27T11:04:40;96510.13;;;17.13;42.11
4012;BME280;2020;48.682;9.024;2023-04-27T11:07:06;96503.44;;;16.75;41.92
4012;BME280;2020;48.682;9.024;2023-04-27T11:09:36;96505.88;;;16.77;43.95
4012;BME280;2020;48.682;9.024;2023-04-27T11:12:11;96499.38;;;16.73;40.34
4012;BME280;2020;48.682;9.024;2023-04-27T11:14:36;96500.94;;;16.60;40.96
4012;BME280;2020;48.682;9.024;2023-04-27T11:17:03;96500.63;;;16.77;41.64
4012;BME280;2020;48.682;9.024;2023-04-27T11:19:29;96497.06;;;16.91;41.46
4012;BME280;2020;48.682;9.024;2023-04-27T11:22:02;96491.72;;;17.13;40.34
4012;BME280;2020;48.682;9.024;2023-04-27T11:24:28;96499.16;;;17.03;41.75
4012;BME280;2020;48.682;9.024;2023-04-27T11:26:54;96497.38;;;17.10;42.12
4012;BME280;2020;48.682;9.024;2023-04-27T11:29:19;96493.28;;;17.07;40.63
4012;BME280;2020;48.682;9.024;2023-04-27T11:31:48;96495.75;;;17.09;40.72
4012;BME280;2020;48.682;9.024;2023-04-27T11:36:41;96497.50;;;17.50;40.16
4012;BME280;2020;48.682;9.024;2023-04-27T11:39:07;96498.94;;;17.60;39.96
4012;BME280;2020;48.682;9.024;2023-04-27T11:41:34;96501.78;;;17.78;40.01
4012;BME280;2020;48.682;9.024;2023-04-27T11:44:05;96506.25;;;17.71;40.32
4012;BME280;2020;48.682;9.024;2023-04-27T11:46:32;96499.25;;;17.30;41.02
4012;BME280;2020;48.682;9.024;2023-04-27T11:49:04;96507.09;;;17.16;40.44
4012;BME280;2020;48.682;9.024;2023-04-27T11:51:30;96498.44;;;16.87;41.82
4012;BME280;2020;48.682;9.024;2023-04-27T11:54:01;96502.41;;;17.05;41.59
4012;BME280;2020;48.682;9.024;2023-04-27T11:56:33;96489.59;;;17.50;40.46
4012;BME280;2020;48.682;9.024;2023-04-27T11:58:59;96493.28;;;17.63;38.81
4012;BME280;2020;48.682;9.024;2023-04-27T12:01:25;96486.75;;;17.45;38.17
4012;BME280;2020;48.682;9.024;2023-04-27T12:03:51;96483.91;;;17.40;40.38
4012;BME280;2020;48.682;9.024;2023-04-27T12:06:23;96478.88;;;17.59;40.12
4012;BME280;2020;48.682;9.024;2023-04-27T12:08:48;96474.81;;;17.49;39.33
4012;BME280;2020;48.682;9.024;2023-04-27T12:11:13;96474.97;;;17.28;39.16
4012;BME280;2020;48.682;9.024;2023-04-27T12:13:39;96470.97;;;17.45;40.25
4012;BME280;2020;48.682;9.024;2023-04-27T12:16:04;96476.03;;;17.53;38.57
4012;BME280;2020;48.682;9.024;2023-04-27T12:18:30;96477.03;;;17.32;40.13
4012;BME280;2020;48.682;9.024;2023-04-27T12:20:55;96475.44;;;17.51;40.65
4012;BME280;2020;48.682;9.024;2023-04-27T12:23:21;96468.00;;;17.82;40.66
4012;BME280;2020;48.682;9.024;2023-04-27T12:25:47;96462.53;;;17.83;38.30
4012;BME280;2020;48.682;9.024;2023-04-27T12:28:12;96463.53;;;17.69;40.25
4012;BME280;2020;48.682;9.024;2023-04-27T12:30:42;96463.91;;;17.52;39.04
4012;BME280;2020;48.682;9.024;2023-04-27T12:33:08;96465.28;;;17.28;39.14
4012;BME280;2020;48.682;9.024;2023-04-27T12:35:35;96471.16;;;17.37;38.88
4012;BME280;2020;48.682;9.024;2023-04-27T12:38:00;96474.53;;;17.17;38.54
4012;BME280;2020;48.682;9.024;2023-04-27T12:40:26;96477.00;;;17.25;38.36
4012;BME280;2020;48.682;9.024;2023-04-27T12:42:51;96478.53;;;17.00;38.45
4012;BME280;2020;48.682;9.024;2023-04-27T12:45:16;96477.03;;;16.90;39.50
4012;BME280;2020;48.682;9.024;2023-04-27T12:47:43;96476.91;;;17.05;39.86
4012;BME280;2020;48.682;9.024;2023-04-27T12:50:08;96466.00;;;17.02;40.10
4012;BME280;2020;48.682;9.024;2023-04-27T12:52:33;96472.78;;;16.89;39.36
4012;BME280;2020;48.682;9.024;2023-04-27T12:54:59;96469.72;;;16.86;39.87
4012;BME280;2020;48.682;9.024;2023-04-27T12:57:24;96458.97;;;16.74;39.56
4012;BME280;2020;48.682;9.024;2023-04-27T12:59:50;96461.75;;;16.65;38.77
4012;BME280;2020;48.682;9.024;2023-04-27T13:02:16;96459.03;;;16.87;40.63
4012;BME280;2020;48.682;9.024;2023-04-27T13:04:41;96465.13;;;16.94;39.51
4012;BME280;2020;48.682;9.024;2023-04-27T13:07:06;96453.94;;;17.28;39.44
4012;BME280;2020;48.682;9.024;2023-04-27T13:09:31;96455.06;;;17.05;38.71
4012;BME280;2020;48.682;9.024;2023-04-27T13:11:57;96454.13;;;16.77;39.07
4012;BME280;2020;48.682;9.024;2023-04-27T13:14:23;96445.78;;;17.16;40.66
4012;BME280;2020;48.682;9.024;2023-04-27T13:16:48;96449.72;;;17.33;39.72
4012;BME280;2020;48.682;9.024;2023-04-27T13:19:14;96449.53;;;17.42;40.21
4012;BME280;2020;48.682;9.024;2023-04-27T13:21:39;96444.63;;;17.32;39.83
4012;BME280;2020;48.682;9.024;2023-04-27T13:24:05;96452.75;;;17.37;39.29
4012;BME280;2020;48.682;9.024;2023-04-27T13:26:31;96458.75;;;17.17;39.82
4012;BME280;2020;48.682;9.024;2023-04-27T13:28:56;96457.63;;;16.56;39.60
4012;BME280;2020;48.682;9.024;2023-04-27T13:31:22;96457.69;;;16.63;39.78